• Join FlightAware (Why Join?)
  • Login
  • US Flag 
12:39PM EST


 

Airport Tracker/Info


-or-


 

Live Flight TrackerFlight Track Log ✈ DAL6034 ✈ 14-Jun-2013 ✈ KDTW - KBUF

Flight Track Log - Related Links

Times and Time Zones

All times are in EDT time to prevent confusion due to time zone crossing. See the DAL6034 flight status page for this flight to view local times or setup timezone preferences in your user account.

Time Position Orientation Groundspeed Altitude Reporting Facility
EDT Latitude Longitude Course Direction KTS MPH feet Rate Location/Type
10:25AM 42.2314 -83.3314 82° East 159 183 1,200  Level Cleveland Center
10:26AM 42.2825 -83.2831 35° Northeast 187 215 4,400 2,340 Climbing Cleveland Center
10:27AM 42.2928 -83.2022 80° East 214 246 6,900 1,860 Climbing Cleveland Center
10:28AM 42.3011 -83.1128 83° East 281 323 8,300 1,440 Climbing Cleveland Center
10:29AM 42.2973 -82.8470 75° East  Level FlightAware Approximate
10:30AM 42.3196 -82.7206 82° East  Level FlightAware Approximate
10:30AM 42.3081 -82.9864 86° East 295 339 10,000  Level Cleveland Center
10:31AM 42.3189 -82.8633 83° East 301 346 10,000 300 Level Cleveland Center
10:32AM 42.3250 -82.7542 86° East 314 361 10,600 1,200 Climbing Cleveland Center
10:33AM 42.3356 -82.6336 83° East 326 375 12,500 1,920 Climbing Cleveland Center
10:34AM 42.3586 -82.5108 76° East 332 382 14,500 1,980 Climbing Cleveland Center
10:35AM 42.3647 -82.3844 86° East 332 382 16,500 1,980 Climbing Cleveland Center
10:36AM 42.3667 -82.2636 89° East 327 376 18,500 1,980 Climbing Cleveland Center
10:37AM 42.3706 -82.1289 88° East 327 376 20,500 1,200 Climbing Cleveland Center
10:38AM 42.3806 -81.9942 84° East 341 392 21,000 240 Climbing Cleveland Center
10:39AM 42.3886 -81.8539 86° East 357 411 21,000  Level Cleveland Center
10:40AM 42.3942 -81.7133 87° East 371 427 21,000  Level Cleveland Center
10:41AM 42.4017 -81.5728 86° East 371 427 21,000 240 Level Cleveland Center
10:42AM 42.4092 -81.4297 86° East 371 427 21,500 900 Climbing Cleveland Center
10:43AM 42.4142 -81.2833 87° East 383 441 22,800 720 Climbing Cleveland Center
10:44AM 42.4214 -81.1400 86° East 383 441 23,000 60 Climbing Cleveland Center
10:45AM 42.4281 -81.0050 86° East 388 447 23,000  Level Cleveland Center
10:46AM 42.4369 -80.8561 85° East 393 452 23,000  Level Cleveland Center
10:47AM 42.4392 -80.7042 89° East 393 452 23,000  Level Cleveland Center
10:48AM 42.4478 -80.5606 85° East 388 447 23,000  Level Cleveland Center
10:49AM 42.4517 -80.4144 88° East 388 447 23,000  Level Cleveland Center
10:50AM 42.4578 -80.2539 87° East 382 440 23,000  Level Cleveland Center
10:51AM 42.4633 -80.1047 87° East 382 440 23,000 -900 Level Cleveland Center
10:52AM 42.4711 -79.9694 85° East 389 448 21,200 -2,100 Descending Cleveland Center
10:53AM 42.4764 -79.8258 87° East 389 448 18,900 -2,220 Descending Cleveland Center
10:54AM 42.4839 -79.6850 86° East 378 435 16,800 -2,220 Descending Cleveland Center
10:55AM 42.4869 -79.5469 88° East 372 428 14,500 -2,100 Descending Cleveland Center
10:56AM 42.4897 -79.4231 88° East 349 402 12,600 -1,920 Descending Cleveland Center
10:57AM 42.5011 -79.3075 82° East 323 372 10,700 -1,800 Descending Cleveland Center
10:58AM 42.5525 -79.2331 47° Northeast 271 312 9,000 -1,980 Descending Cleveland Center
10:59AM 42.6119 -79.1586 43° Northeast 261 300 6,800 -1,860 Descending Cleveland Center
11:00AM 42.6633 -79.0953 42° Northeast 255 293 5,300 -900 Descending Cleveland Center
11:01AM 42.7083 -79.0347 45° Northeast 233 268 5,000 -300 Descending Cleveland Center
11:02AM 42.7453 -78.9886 43° Northeast 209 241 4,800 -840 Descending Cleveland Center
11:03AM 42.7861 -78.9367 43° Northeast 204 235 3,400 -1,440 Descending Cleveland Center